createdAt,value
2023-02-09T00:01:12.420Z,63.00
2023-02-09T00:03:39.848Z,61.00
2023-02-09T00:06:08.249Z,65.53
2023-02-09T00:08:36.228Z,65.33
2023-02-09T00:11:10.507Z,67.43
2023-02-09T00:13:37.905Z,63.40
2023-02-09T00:16:06.025Z,62.47
2023-02-09T00:18:34.477Z,73.83
2023-02-09T00:21:03.433Z,69.33
2023-02-09T00:23:31.885Z,66.07
2023-02-09T00:25:59.936Z,70.17
2023-02-09T00:28:28.925Z,68.70
2023-02-09T00:30:56.424Z,70.90
2023-02-09T00:33:23.910Z,68.40
2023-02-09T00:35:51.314Z,68.57
2023-02-09T00:38:18.974Z,69.53
2023-02-09T00:40:48.854Z,66.27
2023-02-09T00:43:16.219Z,75.63
2023-02-09T00:45:44.059Z,73.87
2023-02-09T00:48:11.492Z,71.30
2023-02-09T00:50:38.820Z,69.30
2023-02-09T00:53:06.202Z,71.83
2023-02-09T00:55:35.170Z,71.20
2023-02-09T00:58:02.564Z,77.63
2023-02-09T01:00:32.330Z,72.73
2023-02-09T01:02:59.747Z,67.93
2023-02-09T01:05:27.223Z,81.47
2023-02-09T01:07:55.108Z,73.20
2023-02-09T01:10:22.481Z,71.73
2023-02-09T01:12:50.351Z,75.30
2023-02-09T01:15:19.040Z,72.80
2023-02-09T01:17:47.812Z,73.37
2023-02-09T01:20:16.673Z,74.40
2023-02-09T01:22:45.355Z,81.97
2023-02-09T01:25:12.747Z,75.27
2023-02-09T01:27:42.205Z,71.67
2023-02-09T01:30:10.135Z,72.60
2023-02-09T01:32:38.007Z,84.30
2023-02-09T01:35:05.556Z,76.23
2023-02-09T01:37:34.628Z,77.63
2023-02-09T01:40:02.232Z,78.13
2023-02-09T01:42:29.759Z,77.53
2023-02-09T01:44:58.987Z,73.33
2023-02-09T01:47:26.397Z,75.60
2023-02-09T01:49:53.980Z,75.13
2023-02-09T01:52:24.327Z,74.17
2023-02-09T01:54:56.830Z,79.10
2023-02-09T01:57:33.564Z,79.40
2023-02-09T02:00:04.381Z,78.70
2023-02-09T02:02:42.320Z,77.83
2023-02-09T02:05:09.961Z,82.10
2023-02-09T02:07:56.472Z,80.87
2023-02-09T02:10:25.899Z,75.23
2023-02-09T02:12:54.586Z,78.67
2023-02-09T02:15:30.035Z,77.67
2023-02-09T02:18:09.548Z,71.40
2023-02-09T02:20:42.807Z,69.83
2023-02-09T02:23:13.334Z,75.00
2023-02-09T02:25:57.544Z,70.90
2023-02-09T02:28:28.021Z,75.20
2023-02-09T02:31:07.791Z,75.37
2023-02-09T02:33:45.971Z,75.90
2023-02-09T02:36:28.790Z,74.13
2023-02-09T02:39:14.358Z,72.70
2023-02-09T02:42:06.323Z,75.00
2023-02-09T02:44:38.025Z,77.33
2023-02-09T02:47:07.340Z,72.00
2023-02-09T02:49:39.240Z,79.13
2023-02-09T02:52:09.545Z,74.33
2023-02-09T02:54:41.950Z,74.27
2023-02-09T02:57:19.830Z,75.20
2023-02-09T02:59:51.101Z,77.77
2023-02-09T03:02:25.378Z,69.93
2023-02-09T03:04:54.203Z,68.87
2023-02-09T03:07:21.686Z,69.70
2023-02-09T03:09:50.114Z,71.43
2023-02-09T03:12:27.539Z,72.23
2023-02-09T03:15:04.499Z,68.90
2023-02-09T03:17:38.100Z,72.70
2023-02-09T03:20:08.985Z,71.07
2023-02-09T03:22:38.092Z,74.80
2023-02-09T03:25:05.423Z,73.97
2023-02-09T03:27:45.273Z,72.40
2023-02-09T03:30:14.364Z,73.33
2023-02-09T03:32:43.109Z,74.73
2023-02-09T03:35:12.202Z,71.67
2023-02-09T03:37:41.331Z,66.50
2023-02-09T03:40:10.147Z,74.67
2023-02-09T03:42:37.560Z,70.07
2023-02-09T03:45:08.055Z,78.37
2023-02-09T03:47:35.706Z,71.57
2023-02-09T03:50:03.058Z,78.77
2023-02-09T03:52:31.976Z,69.77
2023-02-09T03:54:59.320Z,71.27
2023-02-09T03:57:29.468Z,78.83
2023-02-09T03:59:58.178Z,72.63
2023-02-09T04:02:25.485Z,74.20
2023-02-09T04:04:53.622Z,76.77
2023-02-09T04:07:23.072Z,74.03
2023-02-09T04:09:51.740Z,73.70
2023-02-09T04:12:19.245Z,72.37
2023-02-09T04:14:48.134Z,77.10
2023-02-09T04:17:20.823Z,74.47
2023-02-09T04:19:48.284Z,74.93
2023-02-09T04:22:15.624Z,79.37
2023-02-09T04:24:44.668Z,78.43
2023-02-09T04:27:17.134Z,80.03
2023-02-09T04:29:44.485Z,71.00
2023-02-09T04:32:11.808Z,74.57
2023-02-09T04:34:39.147Z,72.63
2023-02-09T04:37:09.559Z,69.67
2023-02-09T04:39:36.899Z,77.40
2023-02-09T04:42:05.479Z,77.73
2023-02-09T04:44:32.785Z,77.53
2023-02-09T04:47:00.124Z,70.57
2023-02-09T04:49:27.405Z,71.77
2023-02-09T04:51:54.736Z,80.40
2023-02-09T04:54:24.041Z,77.67
2023-02-09T04:57:11.306Z,77.05
2023-02-09T04:59:40.580Z,77.23
2023-02-09T05:02:08.334Z,76.33
2023-02-09T05:04:36.804Z,77.60
2023-02-09T05:07:04.645Z,71.90
2023-02-09T05:09:32.028Z,80.63
2023-02-09T05:11:59.431Z,78.70
2023-02-09T05:14:28.220Z,83.57
2023-02-09T05:16:55.596Z,82.03
2023-02-09T05:19:22.918Z,76.70
2023-02-09T05:21:50.240Z,81.43
2023-02-09T05:24:17.558Z,76.37
2023-02-09T05:26:44.920Z,81.33
2023-02-09T05:29:12.260Z,85.80
2023-02-09T05:31:39.665Z,80.73
2023-02-09T05:34:07.074Z,87.33
2023-02-09T05:36:34.406Z,80.97
2023-02-09T05:39:01.692Z,77.87
2023-02-09T05:41:47.846Z,80.47
2023-02-09T05:44:15.168Z,84.17
2023-02-09T05:46:42.460Z,80.23
2023-02-09T05:49:09.942Z,77.03
2023-02-09T05:51:37.355Z,79.43
2023-02-09T05:54:04.664Z,79.63
2023-02-09T05:56:31.944Z,79.03
2023-02-09T05:58:59.274Z,80.40
2023-02-09T06:01:26.631Z,89.57
2023-02-09T06:03:54.248Z,91.60
2023-02-09T06:06:21.603Z,84.00
2023-02-09T06:08:49.011Z,80.80
2023-02-09T06:11:16.464Z,83.57
2023-02-09T06:13:45.923Z,78.93
2023-02-09T06:16:13.541Z,84.23
2023-02-09T06:18:40.861Z,89.93
2023-02-09T06:21:08.250Z,79.67
2023-02-09T06:23:35.548Z,81.47
2023-02-09T06:26:07.521Z,88.37
2023-02-09T06:28:34.970Z,79.87
2023-02-09T06:31:02.355Z,75.97
2023-02-09T06:33:29.686Z,86.47
2023-02-09T06:35:56.976Z,81.23
2023-02-09T06:38:24.335Z,81.23
2023-02-09T06:40:51.964Z,83.00
2023-02-09T06:43:19.567Z,78.77
2023-02-09T06:45:46.948Z,87.97
2023-02-09T06:48:14.286Z,86.13
2023-02-09T06:50:41.609Z,80.90
2023-02-09T06:53:09.085Z,86.37
2023-02-09T06:55:36.491Z,79.27
2023-02-09T06:58:03.785Z,81.30
2023-02-09T07:00:31.715Z,84.27
2023-02-09T07:02:59.987Z,84.60
2023-02-09T07:05:27.788Z,87.37
2023-02-09T07:07:56.736Z,81.30
2023-02-09T07:10:24.149Z,85.83
2023-02-09T07:12:51.459Z,83.37
2023-02-09T07:15:18.892Z,83.70
2023-02-09T07:17:46.256Z,81.00
2023-02-09T07:20:13.760Z,84.23
2023-02-09T07:22:41.288Z,80.77
2023-02-09T07:25:09.641Z,84.93
2023-02-09T07:27:37.054Z,85.13
2023-02-09T07:30:04.507Z,86.70
2023-02-09T07:32:34.101Z,84.17
2023-02-09T07:35:03.783Z,79.43
2023-02-09T07:37:31.244Z,86.27
2023-02-09T07:39:58.747Z,80.13
2023-02-09T07:42:26.108Z,79.67
2023-02-09T07:45:03.480Z,78.33
2023-02-09T07:47:30.966Z,81.33
2023-02-09T07:49:58.294Z,77.83
2023-02-09T07:52:25.706Z,88.17
2023-02-09T07:54:53.601Z,82.27
2023-02-09T07:57:20.926Z,82.50
2023-02-09T07:59:49.353Z,82.03
2023-02-09T08:02:19.333Z,85.57
2023-02-09T08:04:46.974Z,88.23
2023-02-09T08:07:14.325Z,85.67
2023-02-09T08:09:45.091Z,75.83
2023-02-09T08:12:12.653Z,85.50
2023-02-09T08:14:48.096Z,83.03
2023-02-09T08:17:23.172Z,78.83
2023-02-09T08:19:55.045Z,87.10
2023-02-09T08:22:23.099Z,80.27
2023-02-09T08:24:57.989Z,78.63
2023-02-09T08:27:25.739Z,88.20
2023-02-09T08:29:53.196Z,84.67
2023-02-09T08:32:22.679Z,84.15
2023-02-09T08:34:52.046Z,82.47
2023-02-09T08:37:21.507Z,84.03
2023-02-09T08:39:49.145Z,76.40
2023-02-09T08:42:16.613Z,81.90
2023-02-09T08:44:44.167Z,86.73
2023-02-09T08:47:14.229Z,79.40
2023-02-09T08:49:43.370Z,92.77
2023-02-09T08:52:11.107Z,83.30
2023-02-09T08:54:42.164Z,84.53
2023-02-09T08:57:09.900Z,82.03
2023-02-09T08:59:37.652Z,81.40
2023-02-09T09:02:05.984Z,83.97
2023-02-09T09:04:38.082Z,78.63
2023-02-09T09:07:06.081Z,82.80
2023-02-09T09:09:36.181Z,79.47
2023-02-09T09:12:03.599Z,84.67
2023-02-09T09:14:32.054Z,87.87
2023-02-09T09:17:00.634Z,85.17
2023-02-09T09:19:29.564Z,82.53
2023-02-09T09:22:03.263Z,84.57
2023-02-09T09:24:34.911Z,80.80
2023-02-09T09:27:02.430Z,82.23
2023-02-09T09:29:29.839Z,85.53
2023-02-09T09:31:57.222Z,84.73
2023-02-09T09:34:24.635Z,84.47
2023-02-09T09:36:52.023Z,84.23
2023-02-09T09:39:19.650Z,82.17
2023-02-09T09:41:47.762Z,84.43
2023-02-09T09:44:17.192Z,81.73
2023-02-09T09:46:47.823Z,71.80
2023-02-09T09:49:27.795Z,82.93
2023-02-09T09:52:07.333Z,82.57
2023-02-09T09:54:36.008Z,86.33
2023-02-09T09:57:04.241Z,79.50
2023-02-09T09:59:40.290Z,73.00
2023-02-09T10:02:23.585Z,85.37
2023-02-09T10:04:51.257Z,72.30
2023-02-09T10:07:21.812Z,77.27
2023-02-09T10:09:57.511Z,78.23
2023-02-09T10:12:30.903Z,81.73
2023-02-09T10:15:03.045Z,78.97
2023-02-09T10:17:30.682Z,80.67
2023-02-09T10:20:03.776Z,85.33
2023-02-09T10:22:31.168Z,90.13
2023-02-09T10:24:59.866Z,92.13
2023-02-09T10:27:31.681Z,79.50
2023-02-09T10:30:19.383Z,81.90
2023-02-09T10:32:47.007Z,82.83
2023-02-09T10:35:33.297Z,64.80
2023-02-09T10:38:02.697Z,78.63
2023-02-09T10:40:35.179Z,75.37
2023-02-09T10:43:04.149Z,71.50
2023-02-09T10:45:36.198Z,66.27
2023-02-09T10:48:24.684Z,61.40
2023-02-09T10:50:54.255Z,57.60
2023-02-09T10:53:30.576Z,60.87
2023-02-09T10:56:27.912Z,63.13
2023-02-09T10:59:03.670Z,59.60
2023-02-09T11:01:33.844Z,53.43
2023-02-09T11:04:09.010Z,57.57
2023-02-09T11:06:51.152Z,53.07
2023-02-09T11:09:20.702Z,50.17
2023-02-09T11:11:48.096Z,49.63
2023-02-09T11:14:17.933Z,55.53
2023-02-09T11:16:45.207Z,62.37
2023-02-09T11:19:23.779Z,56.77
2023-02-09T11:22:04.241Z,53.33
2023-02-09T11:24:50.224Z,52.67
2023-02-09T11:27:23.823Z,54.73
2023-02-09T11:29:58.663Z,60.50
2023-02-09T11:32:41.915Z,70.60
2023-02-09T11:35:22.090Z,54.10
2023-02-09T11:37:50.021Z,59.80
2023-02-09T11:40:25.799Z,49.67
2023-02-09T11:43:11.697Z,55.43
2023-02-09T11:45:46.914Z,54.10
2023-02-09T11:48:42.426Z,50.77
2023-02-09T11:51:15.240Z,58.77
2023-02-09T11:53:46.577Z,56.53
2023-02-09T11:56:34.025Z,53.77
2023-02-09T11:59:05.562Z,49.53
2023-02-09T12:02:10.259Z,51.73
2023-02-09T12:04:58.256Z,59.73
2023-02-09T12:07:39.931Z,48.47
2023-02-09T12:10:26.175Z,48.30
2023-02-09T12:12:59.129Z,51.07
2023-02-09T12:15:35.649Z,44.73
2023-02-09T12:18:05.028Z,42.07
2023-02-09T12:20:46.772Z,49.43
2023-02-09T12:23:18.708Z,45.43
2023-02-09T12:25:51.184Z,43.57
2023-02-09T12:28:38.699Z,44.87
2023-02-09T12:31:07.498Z,41.13
2023-02-09T12:33:36.437Z,43.10
2023-02-09T12:36:15.389Z,42.30
2023-02-09T12:39:04.035Z,40.97
2023-02-09T12:41:53.160Z,44.20
2023-02-09T12:44:20.523Z,40.33
2023-02-09T12:47:01.834Z,40.23
2023-02-09T12:49:29.608Z,37.87
2023-02-09T12:52:17.768Z,39.23
2023-02-09T12:54:50.334Z,39.77
2023-02-09T12:57:20.459Z,48.40
2023-02-09T12:59:53.366Z,38.33
2023-02-09T13:02:27.874Z,36.93
2023-02-09T13:05:13.449Z,34.77
2023-02-09T13:07:49.074Z,38.07
2023-02-09T13:10:48.984Z,43.03
2023-02-09T13:13:45.889Z,37.57
2023-02-09T13:16:25.697Z,37.13
2023-02-09T13:19:03.599Z,43.10
2023-02-09T13:21:40.248Z,36.33
2023-02-09T13:24:15.816Z,38.67
2023-02-09T13:26:59.271Z,36.83
2023-02-09T13:29:31.297Z,35.20
2023-02-09T13:32:25.350Z,35.87
2023-02-09T13:35:20.894Z,32.70
2023-02-09T13:38:04.354Z,37.10
2023-02-09T13:40:33.804Z,34.27
2023-02-09T13:43:21.824Z,35.37
2023-02-09T13:45:50.222Z,34.93
2023-02-09T13:48:28.125Z,37.43
2023-02-09T13:50:56.502Z,35.37
2023-02-09T13:53:25.313Z,31.63
2023-02-09T13:55:57.039Z,30.47
2023-02-09T13:58:38.177Z,31.73
2023-02-09T14:01:14.304Z,32.77
2023-02-09T14:04:00.000Z,28.07
2023-02-09T14:06:39.682Z,31.30
2023-02-09T14:09:14.477Z,32.17
2023-02-09T14:11:44.991Z,32.77
2023-02-09T14:14:51.948Z,29.40
2023-02-09T14:17:26.175Z,31.07
2023-02-09T14:19:54.862Z,30.97
2023-02-09T14:22:37.435Z,30.83
2023-02-09T14:25:27.930Z,29.10
2023-02-09T14:27:57.706Z,37.13
2023-02-09T14:30:29.795Z,34.30
2023-02-09T14:32:58.809Z,37.20
2023-02-09T14:35:31.655Z,31.40
2023-02-09T14:38:00.994Z,29.13
2023-02-09T14:40:28.481Z,35.60
2023-02-09T14:43:18.463Z,31.33
2023-02-09T14:45:47.938Z,35.77
2023-02-09T14:48:16.699Z,33.60
2023-02-09T14:50:44.462Z,31.07
2023-02-09T14:53:14.321Z,36.70
2023-02-09T14:55:42.449Z,31.83
2023-02-09T14:58:25.170Z,32.70
2023-02-09T15:00:55.924Z,32.93
2023-02-09T15:03:23.672Z,34.37
2023-02-09T15:05:53.346Z,36.83
2023-02-09T15:08:23.839Z,33.83
2023-02-09T15:10:53.419Z,33.07
2023-02-09T15:13:22.076Z,34.60
2023-02-09T15:15:49.572Z,33.27
2023-02-09T15:18:22.260Z,33.17
2023-02-09T15:20:50.295Z,40.17
2023-02-09T15:23:18.165Z,39.43
2023-02-09T15:25:45.949Z,36.47
2023-02-09T15:28:17.590Z,42.73
2023-02-09T15:30:45.496Z,37.37
2023-02-09T15:33:13.550Z,39.37
2023-02-09T15:35:41.485Z,36.20
2023-02-09T15:38:13.346Z,34.50
2023-02-09T15:41:03.477Z,36.73
2023-02-09T15:43:57.335Z,43.20
2023-02-09T15:46:44.149Z,34.67
2023-02-09T15:49:11.956Z,42.33
2023-02-09T15:51:43.212Z,39.57
2023-02-09T15:54:15.490Z,37.50
2023-02-09T15:56:45.436Z,42.47
2023-02-09T15:59:20.696Z,41.30
2023-02-09T16:01:49.505Z,54.77
2023-02-09T16:04:20.827Z,41.63
2023-02-09T16:06:54.411Z,39.33
2023-02-09T16:09:25.720Z,46.43
2023-02-09T16:11:54.516Z,50.00
2023-02-09T16:14:26.122Z,42.43
2023-02-09T16:16:54.654Z,47.37
2023-02-09T16:19:23.138Z,48.60
2023-02-09T16:21:52.443Z,47.73
2023-02-09T16:24:23.271Z,46.73
2023-02-09T16:26:53.626Z,42.20
2023-02-09T16:29:21.573Z,47.00
2023-02-09T16:31:49.229Z,46.17
2023-02-09T16:34:16.717Z,44.90
2023-02-09T16:36:44.043Z,43.77
2023-02-09T16:39:18.252Z,46.60
2023-02-09T16:41:53.502Z,48.07
2023-02-09T16:44:25.213Z,48.23
2023-02-09T16:47:01.121Z,56.77
2023-02-09T16:49:31.191Z,48.70
2023-02-09T16:52:02.999Z,50.70
2023-02-09T16:54:33.420Z,46.83
2023-02-09T16:57:03.418Z,59.13
2023-02-09T16:59:30.719Z,55.97
2023-02-09T17:02:00.001Z,55.20
2023-02-09T17:04:27.425Z,44.13
2023-02-09T17:06:54.924Z,48.23
2023-02-09T17:09:22.290Z,47.47
2023-02-09T17:11:49.616Z,55.00
2023-02-09T17:14:17.073Z,50.67
2023-02-09T17:16:49.714Z,47.93
2023-02-09T17:19:18.336Z,51.33
2023-02-09T17:21:46.222Z,46.80
2023-02-09T17:24:15.955Z,47.30
2023-02-09T17:26:45.195Z,58.87
2023-02-09T17:29:14.193Z,48.97
2023-02-09T17:31:52.946Z,54.13
2023-02-09T17:34:27.766Z,51.57
2023-02-09T17:37:00.220Z,49.97
2023-02-09T17:39:30.776Z,49.73
2023-02-09T17:42:00.416Z,51.00
2023-02-09T17:44:46.416Z,52.27
2023-02-09T17:47:18.172Z,56.03
2023-02-09T17:49:46.292Z,48.83
2023-02-09T17:52:20.108Z,49.73
2023-02-09T17:54:50.886Z,49.97
2023-02-09T17:57:18.744Z,57.83
2023-02-09T17:59:48.905Z,46.43
2023-02-09T18:02:18.028Z,48.73
2023-02-09T18:04:45.490Z,53.80
2023-02-09T18:07:20.270Z,49.63
2023-02-09T18:09:48.410Z,51.83
2023-02-09T18:12:21.053Z,51.80
2023-02-09T18:14:48.720Z,51.40
2023-02-09T18:17:19.633Z,47.30
2023-02-09T18:19:48.284Z,48.73
2023-02-09T18:22:22.596Z,52.13
2023-02-09T18:24:54.692Z,56.13
2023-02-09T18:27:24.306Z,47.20
2023-02-09T18:29:56.540Z,45.17
2023-02-09T18:32:25.690Z,51.17
2023-02-09T18:34:54.899Z,45.57
2023-02-09T18:37:23.692Z,50.37
2023-02-09T18:39:54.804Z,47.47
2023-02-09T18:42:22.604Z,48.37
2023-02-09T18:44:52.254Z,50.10
2023-02-09T18:47:21.670Z,49.07
2023-02-09T18:49:49.250Z,44.53
2023-02-09T18:52:24.426Z,48.17
2023-02-09T18:54:52.339Z,50.90
2023-02-09T18:57:19.788Z,46.97
2023-02-09T18:59:47.957Z,52.33
2023-02-09T19:02:17.608Z,54.17
2023-02-09T19:04:45.031Z,48.20
2023-02-09T19:07:15.114Z,50.53
2023-02-09T19:09:46.191Z,50.77
2023-02-09T19:12:13.712Z,52.27
2023-02-09T19:14:42.048Z,50.20
2023-02-09T19:17:14.519Z,52.73
2023-02-09T19:20:00.562Z,53.20
2023-02-09T19:22:41.517Z,60.07
2023-02-09T19:25:09.470Z,58.87
2023-02-09T19:27:39.182Z,53.93
2023-02-09T19:30:07.103Z,56.67
2023-02-09T19:32:35.176Z,58.47
2023-02-09T19:35:04.292Z,53.47
2023-02-09T19:37:32.045Z,53.67
2023-02-09T19:40:10.925Z,59.60
2023-02-09T19:42:38.214Z,55.87
2023-02-09T19:45:05.694Z,55.33
2023-02-09T19:47:33.162Z,60.20
2023-02-09T19:50:00.546Z,54.87
2023-02-09T19:52:30.653Z,60.60
2023-02-09T19:54:58.585Z,56.30
2023-02-09T19:57:26.414Z,61.50
2023-02-09T19:59:54.720Z,61.03
2023-02-09T20:02:22.280Z,58.70
2023-02-09T20:04:51.078Z,57.80
2023-02-09T20:07:18.422Z,55.33
2023-02-09T20:09:45.811Z,55.37
2023-02-09T20:12:13.235Z,60.53
2023-02-09T20:14:40.638Z,56.13
2023-02-09T20:17:08.027Z,59.40
2023-02-09T20:19:39.900Z,60.37
2023-02-09T20:22:07.250Z,55.30
2023-02-09T20:24:34.560Z,57.57
2023-02-09T20:27:01.983Z,57.37
2023-02-09T20:29:29.579Z,61.80
2023-02-09T20:31:57.411Z,62.67
2023-02-09T20:34:24.836Z,58.70
2023-02-09T20:36:53.249Z,64.40
2023-02-09T20:39:23.411Z,59.30
2023-02-09T20:42:14.874Z,57.17
2023-02-09T20:45:01.293Z,59.77
2023-02-09T20:47:30.380Z,58.27
2023-02-09T20:50:00.028Z,60.37
2023-02-09T20:52:28.683Z,65.10
2023-02-09T20:54:56.112Z,59.93
2023-02-09T20:57:29.541Z,62.37
2023-02-09T21:00:00.360Z,53.23
2023-02-09T21:02:28.242Z,63.10
2023-02-09T21:04:56.555Z,58.97
2023-02-09T21:07:25.172Z,58.10
2023-02-09T21:09:54.957Z,61.63
2023-02-09T21:12:22.972Z,51.17
2023-02-09T21:14:50.855Z,62.87
2023-02-09T21:17:19.152Z,60.70
2023-02-09T21:19:46.512Z,61.90
2023-02-09T21:22:17.324Z,60.37
2023-02-09T21:24:45.096Z,64.30
2023-02-09T21:27:13.166Z,55.93
2023-02-09T21:29:41.914Z,63.03
2023-02-09T21:32:12.079Z,57.63
2023-02-09T21:34:39.861Z,50.60
2023-02-09T21:37:10.207Z,54.17
2023-02-09T21:39:37.594Z,56.00
2023-02-09T21:42:23.576Z,51.40
2023-02-09T21:44:50.898Z,50.63
2023-02-09T21:47:18.467Z,50.17
2023-02-09T21:49:46.052Z,53.30
2023-02-09T21:52:14.394Z,47.93
2023-02-09T21:54:41.758Z,47.93
2023-02-09T21:57:09.950Z,52.03
2023-02-09T21:59:37.461Z,52.30
2023-02-09T22:02:04.909Z,48.60
2023-02-09T22:04:32.301Z,48.03
2023-02-09T22:06:59.709Z,44.90
2023-02-09T22:09:27.199Z,50.07
2023-02-09T22:11:56.048Z,54.13
2023-02-09T22:14:23.490Z,49.90
2023-02-09T22:16:51.051Z,49.80
2023-02-09T22:19:18.401Z,46.90
2023-02-09T22:21:45.729Z,50.10
2023-02-09T22:24:13.929Z,48.93
2023-02-09T22:26:41.344Z,50.20
2023-02-09T22:29:09.411Z,53.33
2023-02-09T22:31:36.776Z,51.90
2023-02-09T22:34:04.314Z,49.37
2023-02-09T22:36:31.628Z,49.43
2023-02-09T22:38:58.928Z,48.63
2023-02-09T22:41:27.717Z,53.87
2023-02-09T22:43:56.367Z,53.20
2023-02-09T22:46:25.306Z,51.27
2023-02-09T22:48:56.400Z,53.57
2023-02-09T22:51:24.765Z,52.63
2023-02-09T22:53:53.654Z,50.97
2023-02-09T22:56:21.375Z,47.83
2023-02-09T22:58:48.889Z,45.07
2023-02-09T23:01:16.315Z,45.67
2023-02-09T23:03:43.770Z,51.27
2023-02-09T23:06:16.938Z,51.33
2023-02-09T23:08:44.718Z,50.93
2023-02-09T23:11:16.658Z,48.20
2023-02-09T23:13:44.633Z,47.67
2023-02-09T23:16:13.424Z,48.70
2023-02-09T23:18:41.370Z,47.47
2023-02-09T23:21:08.855Z,50.87
2023-02-09T23:23:36.532Z,46.47
2023-02-09T23:26:05.441Z,48.37
2023-02-09T23:28:35.105Z,46.43
2023-02-09T23:31:10.721Z,50.20
2023-02-09T23:33:39.121Z,45.43
2023-02-09T23:36:07.172Z,47.83
2023-02-09T23:38:34.582Z,43.30
2023-02-09T23:41:06.458Z,46.33
2023-02-09T23:43:36.639Z,47.07
2023-02-09T23:46:06.312Z,48.17
2023-02-09T23:48:34.171Z,44.60
2023-02-09T23:51:06.403Z,41.87
2023-02-09T23:53:35.153Z,47.27
2023-02-09T23:56:10.030Z,43.50
2023-02-09T23:58:39.736Z,45.27
